sensor_id;sensor_type;location;lat;lon;timestamp;P1;durP1;ratioP1;P2;durP2;ratioP2
71730;SDS011;65964;43.496;3.710;2023-02-28T00:00:01;7.47;;;4.50;;
71730;SDS011;65964;43.496;3.710;2023-02-28T00:02:33;6.85;;;4.72;;
71730;SDS011;65964;43.496;3.710;2023-02-28T00:04:59;7.82;;;4.78;;
71730;SDS011;65964;43.496;3.710;2023-02-28T00:07:26;7.28;;;4.75;;
71730;SDS011;65964;43.496;3.710;2023-02-28T00:09:53;8.80;;;4.60;;
71730;SDS011;65964;43.496;3.710;2023-02-28T00:12:19;6.57;;;4.28;;
71730;SDS011;65964;43.496;3.710;2023-02-28T00:14:45;7.65;;;4.40;;
71730;SDS011;65964;43.496;3.710;2023-02-28T00:17:11;7.35;;;4.28;;
71730;SDS011;65964;43.496;3.710;2023-02-28T00:19:37;6.95;;;3.80;;
71730;SDS011;65964;43.496;3.710;2023-02-28T00:22:03;6.95;;;4.38;;
71730;SDS011;65964;43.496;3.710;2023-02-28T00:24:29;7.43;;;4.43;;
71730;SDS011;65964;43.496;3.710;2023-02-28T00:26:55;6.15;;;4.30;;
71730;SDS011;65964;43.496;3.710;2023-02-28T00:29:21;7.25;;;4.55;;
71730;SDS011;65964;43.496;3.710;2023-02-28T00:31:47;9.13;;;4.43;;
71730;SDS011;65964;43.496;3.710;2023-02-28T00:34:13;7.28;;;4.30;;
71730;SDS011;65964;43.496;3.710;2023-02-28T00:36:39;7.32;;;4.30;;
71730;SDS011;65964;43.496;3.710;2023-02-28T00:39:10;6.70;;;4.38;;
71730;SDS011;65964;43.496;3.710;2023-02-28T00:41:36;6.85;;;4.18;;
71730;SDS011;65964;43.496;3.710;2023-02-28T00:44:02;7.40;;;4.50;;
71730;SDS011;65964;43.496;3.710;2023-02-28T00:46:28;8.25;;;4.40;;
71730;SDS011;65964;43.496;3.710;2023-02-28T00:48:54;7.70;;;4.20;;
71730;SDS011;65964;43.496;3.710;2023-02-28T00:51:20;6.82;;;4.07;;
71730;SDS011;65964;43.496;3.710;2023-02-28T00:53:46;5.90;;;3.85;;
71730;SDS011;65964;43.496;3.710;2023-02-28T00:56:12;7.70;;;4.30;;
71730;SDS011;65964;43.496;3.710;2023-02-28T00:58:38;6.43;;;4.07;;
71730;SDS011;65964;43.496;3.710;2023-02-28T01:01:05;8.32;;;4.90;;
71730;SDS011;65964;43.496;3.710;2023-02-28T01:03:31;8.40;;;5.38;;
71730;SDS011;65964;43.496;3.710;2023-02-28T01:05:57;9.10;;;4.90;;
71730;SDS011;65964;43.496;3.710;2023-02-28T01:08:23;8.20;;;4.70;;
71730;SDS011;65964;43.496;3.710;2023-02-28T01:10:51;9.30;;;5.00;;
71730;SDS011;65964;43.496;3.710;2023-02-28T01:13:17;8.07;;;5.53;;
71730;SDS011;65964;43.496;3.710;2023-02-28T01:15:49;7.75;;;5.13;;
71730;SDS011;65964;43.496;3.710;2023-02-28T01:20:44;7.63;;;4.95;;
71730;SDS011;65964;43.496;3.710;2023-02-28T01:23:11;8.27;;;5.10;;
71730;SDS011;65964;43.496;3.710;2023-02-28T01:25:37;9.30;;;5.50;;
71730;SDS011;65964;43.496;3.710;2023-02-28T01:28:03;10.20;;;5.60;;
71730;SDS011;65964;43.496;3.710;2023-02-28T01:30:30;8.95;;;5.70;;
71730;SDS011;65964;43.496;3.710;2023-02-28T01:32:56;8.45;;;5.57;;
71730;SDS011;65964;43.496;3.710;2023-02-28T01:35:22;8.75;;;5.60;;
71730;SDS011;65964;43.496;3.710;2023-02-28T01:37:48;7.68;;;5.45;;
71730;SDS011;65964;43.496;3.710;2023-02-28T01:40:14;7.85;;;4.90;;
71730;SDS011;65964;43.496;3.710;2023-02-28T01:42:40;8.20;;;5.18;;
71730;SDS011;65964;43.496;3.710;2023-02-28T01:47:34;8.25;;;5.40;;
71730;SDS011;65964;43.496;3.710;2023-02-28T01:50:02;7.93;;;5.15;;
71730;SDS011;65964;43.496;3.710;2023-02-28T01:52:29;7.82;;;5.10;;
71730;SDS011;65964;43.496;3.710;2023-02-28T01:54:56;7.25;;;4.88;;
71730;SDS011;65964;43.496;3.710;2023-02-28T01:57:25;8.45;;;5.43;;
71730;SDS011;65964;43.496;3.710;2023-02-28T01:59:59;8.15;;;5.30;;
71730;SDS011;65964;43.496;3.710;2023-02-28T02:02:26;8.63;;;5.18;;
71730;SDS011;65964;43.496;3.710;2023-02-28T02:04:54;9.50;;;5.35;;
71730;SDS011;65964;43.496;3.710;2023-02-28T02:07:20;8.98;;;5.30;;
71730;SDS011;65964;43.496;3.710;2023-02-28T02:09:47;7.20;;;5.13;;
71730;SDS011;65964;43.496;3.710;2023-02-28T02:12:47;8.70;;;5.25;;
71730;SDS011;65964;43.496;3.710;2023-02-28T02:15:11;8.38;;;5.10;;
71730;SDS011;65964;43.496;3.710;2023-02-28T02:17:39;7.20;;;5.05;;
71730;SDS011;65964;43.496;3.710;2023-02-28T02:20:16;8.27;;;5.10;;
71730;SDS011;65964;43.496;3.710;2023-02-28T02:25:52;8.18;;;5.28;;
71730;SDS011;65964;43.496;3.710;2023-02-28T02:36:25;8.25;;;5.13;;
71730;SDS011;65964;43.496;3.710;2023-02-28T02:43:53;9.15;;;5.95;;
71730;SDS011;65964;43.496;3.710;2023-02-28T02:46:21;8.05;;;5.13;;
71730;SDS011;65964;43.496;3.710;2023-02-28T02:48:49;8.82;;;5.50;;
71730;SDS011;65964;43.496;3.710;2023-02-28T02:51:18;8.90;;;5.25;;
71730;SDS011;65964;43.496;3.710;2023-02-28T02:53:56;8.38;;;5.40;;
71730;SDS011;65964;43.496;3.710;2023-02-28T02:56:25;8.63;;;5.32;;
71730;SDS011;65964;43.496;3.710;2023-02-28T02:58:51;9.82;;;5.45;;
71730;SDS011;65964;43.496;3.710;2023-02-28T03:01:20;8.48;;;5.53;;
71730;SDS011;65964;43.496;3.710;2023-02-28T03:03:53;7.47;;;5.00;;
71730;SDS011;65964;43.496;3.710;2023-02-28T03:06:20;8.05;;;5.30;;
71730;SDS011;65964;43.496;3.710;2023-02-28T03:08:46;9.20;;;5.28;;
71730;SDS011;65964;43.496;3.710;2023-02-28T03:11:13;10.10;;;5.70;;
71730;SDS011;65964;43.496;3.710;2023-02-28T03:21:23;8.20;;;5.07;;
71730;SDS011;65964;43.496;3.710;2023-02-28T03:23:59;8.63;;;5.40;;
71730;SDS011;65964;43.496;3.710;2023-02-28T03:26:26;9.38;;;5.30;;
71730;SDS011;65964;43.496;3.710;2023-02-28T03:29:13;14.85;;;8.13;;
71730;SDS011;65964;43.496;3.710;2023-02-28T03:31:47;9.23;;;5.55;;
71730;SDS011;65964;43.496;3.710;2023-02-28T03:34:29;8.75;;;5.22;;
71730;SDS011;65964;43.496;3.710;2023-02-28T03:36:57;13.45;;;5.50;;
71730;SDS011;65964;43.496;3.710;2023-02-28T03:39:27;8.73;;;5.53;;
71730;SDS011;65964;43.496;3.710;2023-02-28T03:41:59;14.38;;;6.20;;
71730;SDS011;65964;43.496;3.710;2023-02-28T03:44:30;8.65;;;5.60;;
71730;SDS011;65964;43.496;3.710;2023-02-28T03:47:12;7.53;;;5.30;;
71730;SDS011;65964;43.496;3.710;2023-02-28T03:49:40;8.10;;;5.28;;
71730;SDS011;65964;43.496;3.710;2023-02-28T03:52:08;8.95;;;5.13;;
71730;SDS011;65964;43.496;3.710;2023-02-28T03:54:36;7.63;;;5.20;;
71730;SDS011;65964;43.496;3.710;2023-02-28T03:57:10;7.75;;;5.35;;
71730;SDS011;65964;43.496;3.710;2023-02-28T03:59:38;8.23;;;5.25;;
71730;SDS011;65964;43.496;3.710;2023-02-28T04:02:05;9.02;;;5.63;;
71730;SDS011;65964;43.496;3.710;2023-02-28T04:04:31;8.43;;;5.38;;
71730;SDS011;65964;43.496;3.710;2023-02-28T04:07:02;10.93;;;5.55;;
71730;SDS011;65964;43.496;3.710;2023-02-28T04:09:28;10.20;;;5.80;;
71730;SDS011;65964;43.496;3.710;2023-02-28T04:11:54;7.85;;;5.25;;
71730;SDS011;65964;43.496;3.710;2023-02-28T04:14:21;8.55;;;5.32;;
71730;SDS011;65964;43.496;3.710;2023-02-28T04:16:47;8.00;;;5.25;;
71730;SDS011;65964;43.496;3.710;2023-02-28T04:19:14;8.77;;;5.10;;
71730;SDS011;65964;43.496;3.710;2023-02-28T04:21:41;8.15;;;5.30;;
71730;SDS011;65964;43.496;3.710;2023-02-28T04:24:08;10.80;;;5.55;;
71730;SDS011;65964;43.496;3.710;2023-02-28T04:26:39;8.90;;;5.53;;
71730;SDS011;65964;43.496;3.710;2023-02-28T04:29:05;9.05;;;5.53;;
71730;SDS011;65964;43.496;3.710;2023-02-28T04:31:32;10.00;;;5.93;;
71730;SDS011;65964;43.496;3.710;2023-02-28T04:33:58;8.80;;;5.50;;
71730;SDS011;65964;43.496;3.710;2023-02-28T04:36:25;8.18;;;5.57;;
71730;SDS011;65964;43.496;3.710;2023-02-28T04:38:51;9.00;;;5.78;;
71730;SDS011;65964;43.496;3.710;2023-02-28T04:41:17;10.27;;;6.18;;
71730;SDS011;65964;43.496;3.710;2023-02-28T04:43:43;8.75;;;5.60;;
71730;SDS011;65964;43.496;3.710;2023-02-28T04:46:09;9.93;;;5.80;;
71730;SDS011;65964;43.496;3.710;2023-02-28T04:48:37;10.25;;;5.70;;
71730;SDS011;65964;43.496;3.710;2023-02-28T04:51:03;10.65;;;5.95;;
71730;SDS011;65964;43.496;3.710;2023-02-28T04:53:30;8.45;;;5.70;;
71730;SDS011;65964;43.496;3.710;2023-02-28T04:55:56;14.43;;;7.03;;
71730;SDS011;65964;43.496;3.710;2023-02-28T04:58:22;8.88;;;6.28;;
71730;SDS011;65964;43.496;3.710;2023-02-28T05:00:49;8.68;;;6.18;;
71730;SDS011;65964;43.496;3.710;2023-02-28T05:03:15;9.10;;;5.75;;
71730;SDS011;65964;43.496;3.710;2023-02-28T05:05:41;7.95;;;5.25;;
71730;SDS011;65964;43.496;3.710;2023-02-28T05:08:07;12.13;;;6.18;;
71730;SDS011;65964;43.496;3.710;2023-02-28T05:10:34;9.35;;;5.90;;
71730;SDS011;65964;43.496;3.710;2023-02-28T05:13:00;12.25;;;6.18;;
71730;SDS011;65964;43.496;3.710;2023-02-28T05:15:26;11.45;;;6.70;;
71730;SDS011;65964;43.496;3.710;2023-02-28T05:17:52;10.88;;;5.82;;
71730;SDS011;65964;43.496;3.710;2023-02-28T05:20:18;11.25;;;5.85;;
71730;SDS011;65964;43.496;3.710;2023-02-28T05:22:46;9.18;;;6.03;;
71730;SDS011;65964;43.496;3.710;2023-02-28T05:25:12;11.00;;;6.63;;
71730;SDS011;65964;43.496;3.710;2023-02-28T05:27:40;9.38;;;5.90;;
71730;SDS011;65964;43.496;3.710;2023-02-28T05:30:06;10.02;;;5.75;;
71730;SDS011;65964;43.496;3.710;2023-02-28T05:32:35;10.32;;;6.68;;
71730;SDS011;65964;43.496;3.710;2023-02-28T05:35:01;7.47;;;5.82;;
71730;SDS011;65964;43.496;3.710;2023-02-28T05:37:27;9.98;;;6.00;;
71730;SDS011;65964;43.496;3.710;2023-02-28T05:39:53;11.77;;;5.72;;
71730;SDS011;65964;43.496;3.710;2023-02-28T05:42:19;9.50;;;5.63;;
71730;SDS011;65964;43.496;3.710;2023-02-28T05:44:45;10.20;;;5.95;;
71730;SDS011;65964;43.496;3.710;2023-02-28T05:47:11;10.45;;;5.88;;
71730;SDS011;65964;43.496;3.710;2023-02-28T05:49:40;12.40;;;6.22;;
71730;SDS011;65964;43.496;3.710;2023-02-28T05:52:06;10.60;;;5.80;;
71730;SDS011;65964;43.496;3.710;2023-02-28T05:54:32;9.32;;;5.97;;
71730;SDS011;65964;43.496;3.710;2023-02-28T05:56:58;11.77;;;5.90;;
71730;SDS011;65964;43.496;3.710;2023-02-28T05:59:24;13.90;;;6.72;;
71730;SDS011;65964;43.496;3.710;2023-02-28T06:01:51;11.05;;;5.90;;
71730;SDS011;65964;43.496;3.710;2023-02-28T06:04:18;13.43;;;6.43;;
71730;SDS011;65964;43.496;3.710;2023-02-28T06:06:45;13.52;;;6.30;;
71730;SDS011;65964;43.496;3.710;2023-02-28T06:09:12;14.70;;;7.80;;
71730;SDS011;65964;43.496;3.710;2023-02-28T06:11:38;12.73;;;6.70;;
71730;SDS011;65964;43.496;3.710;2023-02-28T06:14:04;9.93;;;6.30;;
71730;SDS011;65964;43.496;3.710;2023-02-28T06:16:31;12.23;;;6.20;;
71730;SDS011;65964;43.496;3.710;2023-02-28T06:18:58;8.75;;;5.65;;
71730;SDS011;65964;43.496;3.710;2023-02-28T06:21:25;11.02;;;6.00;;
71730;SDS011;65964;43.496;3.710;2023-02-28T06:23:52;14.85;;;6.32;;
71730;SDS011;65964;43.496;3.710;2023-02-28T06:26:18;11.98;;;6.00;;
71730;SDS011;65964;43.496;3.710;2023-02-28T06:28:44;14.63;;;6.82;;
71730;SDS011;65964;43.496;3.710;2023-02-28T06:31:11;12.15;;;6.18;;
71730;SDS011;65964;43.496;3.710;2023-02-28T06:33:38;12.13;;;6.35;;
71730;SDS011;65964;43.496;3.710;2023-02-28T06:36:05;14.45;;;6.25;;
71730;SDS011;65964;43.496;3.710;2023-02-28T06:38:31;13.07;;;6.13;;
71730;SDS011;65964;43.496;3.710;2023-02-28T06:40:57;14.18;;;6.40;;
71730;SDS011;65964;43.496;3.710;2023-02-28T06:43:24;10.40;;;6.40;;
71730;SDS011;65964;43.496;3.710;2023-02-28T06:45:54;12.10;;;6.00;;
71730;SDS011;65964;43.496;3.710;2023-02-28T06:48:20;11.27;;;6.35;;
71730;SDS011;65964;43.496;3.710;2023-02-28T06:50:46;11.85;;;6.45;;
71730;SDS011;65964;43.496;3.710;2023-02-28T06:53:12;11.68;;;6.20;;
71730;SDS011;65964;43.496;3.710;2023-02-28T06:55:39;10.00;;;5.85;;
71730;SDS011;65964;43.496;3.710;2023-02-28T06:58:06;14.45;;;6.68;;
71730;SDS011;65964;43.496;3.710;2023-02-28T07:00:40;14.25;;;6.88;;
71730;SDS011;65964;43.496;3.710;2023-02-28T07:03:06;10.82;;;6.07;;
71730;SDS011;65964;43.496;3.710;2023-02-28T07:05:34;10.82;;;6.70;;
71730;SDS011;65964;43.496;3.710;2023-02-28T07:08:00;9.25;;;6.38;;
71730;SDS011;65964;43.496;3.710;2023-02-28T07:10:26;12.93;;;6.97;;
71730;SDS011;65964;43.496;3.710;2023-02-28T07:12:52;12.05;;;6.80;;
71730;SDS011;65964;43.496;3.710;2023-02-28T07:15:18;16.42;;;7.88;;
71730;SDS011;65964;43.496;3.710;2023-02-28T07:17:44;13.77;;;7.18;;
71730;SDS011;65964;43.496;3.710;2023-02-28T07:20:10;12.80;;;6.93;;
71730;SDS011;65964;43.496;3.710;2023-02-28T07:22:36;11.82;;;7.28;;
71730;SDS011;65964;43.496;3.710;2023-02-28T07:25:03;12.18;;;6.57;;
71730;SDS011;65964;43.496;3.710;2023-02-28T07:27:30;18.42;;;7.25;;
71730;SDS011;65964;43.496;3.710;2023-02-28T07:29:56;12.50;;;6.97;;
71730;SDS011;65964;43.496;3.710;2023-02-28T07:32:22;11.90;;;7.32;;
71730;SDS011;65964;43.496;3.710;2023-02-28T07:34:48;14.77;;;7.20;;
71730;SDS011;65964;43.496;3.710;2023-02-28T07:37:14;11.65;;;6.55;;
71730;SDS011;65964;43.496;3.710;2023-02-28T07:39:40;14.60;;;6.63;;
71730;SDS011;65964;43.496;3.710;2023-02-28T07:42:07;13.20;;;6.28;;
71730;SDS011;65964;43.496;3.710;2023-02-28T07:44:36;10.93;;;6.72;;
71730;SDS011;65964;43.496;3.710;2023-02-28T07:47:05;17.33;;;9.48;;
71730;SDS011;65964;43.496;3.710;2023-02-28T07:49:31;12.57;;;6.35;;
71730;SDS011;65964;43.496;3.710;2023-02-28T07:51:57;14.00;;;6.28;;
71730;SDS011;65964;43.496;3.710;2023-02-28T07:54:23;10.52;;;6.72;;
71730;SDS011;65964;43.496;3.710;2023-02-28T07:56:49;14.43;;;6.88;;
71730;SDS011;65964;43.496;3.710;2023-02-28T07:59:15;9.93;;;6.22;;
71730;SDS011;65964;43.496;3.710;2023-02-28T08:01:41;9.02;;;6.10;;
71730;SDS011;65964;43.496;3.710;2023-02-28T08:04:09;12.18;;;6.10;;
71730;SDS011;65964;43.496;3.710;2023-02-28T08:06:35;14.30;;;7.07;;
71730;SDS011;65964;43.496;3.710;2023-02-28T08:09:01;12.20;;;6.30;;
71730;SDS011;65964;43.496;3.710;2023-02-28T08:11:27;10.80;;;6.90;;
71730;SDS011;65964;43.496;3.710;2023-02-28T08:13:54;12.45;;;6.63;;
71730;SDS011;65964;43.496;3.710;2023-02-28T08:16:20;14.43;;;7.53;;
71730;SDS011;65964;43.496;3.710;2023-02-28T08:18:50;9.43;;;6.38;;
71730;SDS011;65964;43.496;3.710;2023-02-28T08:21:16;13.00;;;6.53;;
71730;SDS011;65964;43.496;3.710;2023-02-28T08:23:42;13.10;;;6.18;;
71730;SDS011;65964;43.496;3.710;2023-02-28T08:26:08;10.40;;;6.53;;
71730;SDS011;65964;43.496;3.710;2023-02-28T08:28:34;22.60;;;6.95;;
71730;SDS011;65964;43.496;3.710;2023-02-28T08:31:00;11.10;;;6.30;;
71730;SDS011;65964;43.496;3.710;2023-02-28T08:33:27;11.98;;;6.93;;
71730;SDS011;65964;43.496;3.710;2023-02-28T08:35:53;11.07;;;6.15;;
71730;SDS011;65964;43.496;3.710;2023-02-28T08:38:19;10.57;;;6.50;;
71730;SDS011;65964;43.496;3.710;2023-02-28T08:40:45;13.45;;;6.75;;
71730;SDS011;65964;43.496;3.710;2023-02-28T08:43:11;10.95;;;6.50;;
71730;SDS011;65964;43.496;3.710;2023-02-28T08:45:37;11.98;;;6.80;;
71730;SDS011;65964;43.496;3.710;2023-02-28T08:48:03;11.02;;;6.85;;
71730;SDS011;65964;43.496;3.710;2023-02-28T08:50:30;12.00;;;6.68;;
71730;SDS011;65964;43.496;3.710;2023-02-28T08:52:56;11.88;;;6.57;;
71730;SDS011;65964;43.496;3.710;2023-02-28T08:55:22;10.50;;;6.30;;
71730;SDS011;65964;43.496;3.710;2023-02-28T08:57:48;14.43;;;7.00;;
71730;SDS011;65964;43.496;3.710;2023-02-28T09:00:14;10.10;;;6.10;;
71730;SDS011;65964;43.496;3.710;2023-02-28T09:02:40;18.40;;;10.50;;
71730;SDS011;65964;43.496;3.710;2023-02-28T09:05:08;16.83;;;9.82;;
71730;SDS011;65964;43.496;3.710;2023-02-28T09:07:34;11.20;;;7.03;;
71730;SDS011;65964;43.496;3.710;2023-02-28T09:10:00;17.40;;;8.77;;
71730;SDS011;65964;43.496;3.710;2023-02-28T09:12:27;13.95;;;6.82;;
71730;SDS011;65964;43.496;3.710;2023-02-28T09:14:53;10.25;;;6.65;;
71730;SDS011;65964;43.496;3.710;2023-02-28T09:17:19;12.02;;;7.28;;
71730;SDS011;65964;43.496;3.710;2023-02-28T09:19:47;15.13;;;8.45;;
71730;SDS011;65964;43.496;3.710;2023-02-28T09:22:14;12.07;;;6.80;;
71730;SDS011;65964;43.496;3.710;2023-02-28T09:24:40;16.48;;;6.68;;
71730;SDS011;65964;43.496;3.710;2023-02-28T09:27:06;10.40;;;6.25;;
71730;SDS011;65964;43.496;3.710;2023-02-28T09:29:32;16.65;;;6.25;;
71730;SDS011;65964;43.496;3.710;2023-02-28T09:31:59;14.18;;;6.82;;
71730;SDS011;65964;43.496;3.710;2023-02-28T09:34:26;10.48;;;6.32;;
71730;SDS011;65964;43.496;3.710;2023-02-28T09:36:52;11.93;;;5.80;;
71730;SDS011;65964;43.496;3.710;2023-02-28T09:39:20;11.27;;;6.18;;
71730;SDS011;65964;43.496;3.710;2023-02-28T09:41:47;15.70;;;6.50;;
71730;SDS011;65964;43.496;3.710;2023-02-28T09:46:55;12.10;;;6.18;;
71730;SDS011;65964;43.496;3.710;2023-02-28T09:49:25;9.10;;;5.55;;
71730;SDS011;65964;43.496;3.710;2023-02-28T09:51:58;13.50;;;5.72;;
71730;SDS011;65964;43.496;3.710;2023-02-28T09:54:27;10.30;;;5.75;;
71730;SDS011;65964;43.496;3.710;2023-02-28T09:56:59;11.40;;;7.07;;
71730;SDS011;65964;43.496;3.710;2023-02-28T10:04:36;8.85;;;6.35;;
71730;SDS011;65964;43.496;3.710;2023-02-28T10:07:07;10.77;;;6.75;;
71730;SDS011;65964;43.496;3.710;2023-02-28T10:09:42;10.40;;;6.50;;
71730;SDS011;65964;43.496;3.710;2023-02-28T10:12:08;12.05;;;6.78;;
71730;SDS011;65964;43.496;3.710;2023-02-28T10:14:35;14.23;;;7.85;;
71730;SDS011;65964;43.496;3.710;2023-02-28T10:17:04;9.27;;;6.35;;
71730;SDS011;65964;43.496;3.710;2023-02-28T10:19:34;11.73;;;6.75;;
71730;SDS011;65964;43.496;3.710;2023-02-28T10:22:05;11.50;;;6.55;;
71730;SDS011;65964;43.496;3.710;2023-02-28T10:24:35;11.18;;;6.50;;
71730;SDS011;65964;43.496;3.710;2023-02-28T10:27:06;9.13;;;6.35;;
71730;SDS011;65964;43.496;3.710;2023-02-28T10:32:02;11.50;;;6.95;;
71730;SDS011;65964;43.496;3.710;2023-02-28T10:34:29;14.32;;;7.13;;
71730;SDS011;65964;43.496;3.710;2023-02-28T10:36:55;13.57;;;7.05;;
71730;SDS011;65964;43.496;3.710;2023-02-28T10:39:42;11.02;;;6.88;;
71730;SDS011;65964;43.496;3.710;2023-02-28T10:42:24;10.10;;;6.10;;
71730;SDS011;65964;43.496;3.710;2023-02-28T10:45:04;12.82;;;6.72;;
71730;SDS011;65964;43.496;3.710;2023-02-28T10:47:31;12.13;;;6.57;;
71730;SDS011;65964;43.496;3.710;2023-02-28T10:49:58;13.48;;;6.32;;
71730;SDS011;65964;43.496;3.710;2023-02-28T10:52:36;10.50;;;6.18;;
71730;SDS011;65964;43.496;3.710;2023-02-28T10:58:01;20.90;;;6.80;;
71730;SDS011;65964;43.496;3.710;2023-02-28T11:00:32;10.18;;;5.85;;
71730;SDS011;65964;43.496;3.710;2023-02-28T11:02:58;8.23;;;5.90;;
71730;SDS011;65964;43.496;3.710;2023-02-28T11:05:26;8.35;;;5.13;;
71730;SDS011;65964;43.496;3.710;2023-02-28T11:08:03;11.43;;;6.57;;
71730;SDS011;65964;43.496;3.710;2023-02-28T11:10:31;11.98;;;5.85;;
71730;SDS011;65964;43.496;3.710;2023-02-28T11:13:00;9.95;;;6.10;;
71730;SDS011;65964;43.496;3.710;2023-02-28T11:18:02;10.65;;;7.13;;
71730;SDS011;65964;43.496;3.710;2023-02-28T11:20:32;10.77;;;6.07;;
71730;SDS011;65964;43.496;3.710;2023-02-28T11:23:00;9.43;;;6.10;;
71730;SDS011;65964;43.496;3.710;2023-02-28T11:27:54;9.75;;;6.03;;
71730;SDS011;65964;43.496;3.710;2023-02-28T11:30:33;14.02;;;7.38;;
71730;SDS011;65964;43.496;3.710;2023-02-28T11:33:00;15.32;;;8.10;;
71730;SDS011;65964;43.496;3.710;2023-02-28T11:35:33;11.25;;;6.55;;
71730;SDS011;65964;43.496;3.710;2023-02-28T11:38:02;11.18;;;6.53;;
71730;SDS011;65964;43.496;3.710;2023-02-28T11:40:41;10.40;;;6.38;;
71730;SDS011;65964;43.496;3.710;2023-02-28T11:51:01;10.15;;;6.60;;
71730;SDS011;65964;43.496;3.710;2023-02-28T11:56:26;11.75;;;6.68;;
71730;SDS011;65964;43.496;3.710;2023-02-28T11:59:01;12.85;;;6.85;;
71730;SDS011;65964;43.496;3.710;2023-02-28T12:01:34;11.18;;;6.45;;
71730;SDS011;65964;43.496;3.710;2023-02-28T12:12:00;9.93;;;5.70;;
71730;SDS011;65964;43.496;3.710;2023-02-28T12:22:05;11.20;;;6.40;;
71730;SDS011;65964;43.496;3.710;2023-02-28T12:24:50;9.63;;;6.00;;
71730;SDS011;65964;43.496;3.710;2023-02-28T12:27:19;9.60;;;6.18;;
71730;SDS011;65964;43.496;3.710;2023-02-28T12:29:52;10.48;;;6.45;;
71730;SDS011;65964;43.496;3.710;2023-02-28T12:32:30;12.82;;;6.07;;
71730;SDS011;65964;43.496;3.710;2023-02-28T12:35:00;10.95;;;6.28;;
71730;SDS011;65964;43.496;3.710;2023-02-28T12:37:29;10.90;;;6.20;;
71730;SDS011;65964;43.496;3.710;2023-02-28T12:40:00;9.82;;;5.88;;
71730;SDS011;65964;43.496;3.710;2023-02-28T12:42:31;11.93;;;6.05;;
71730;SDS011;65964;43.496;3.710;2023-02-28T12:45:01;9.68;;;6.28;;
71730;SDS011;65964;43.496;3.710;2023-02-28T12:47:28;15.75;;;6.68;;
71730;SDS011;65964;43.496;3.710;2023-02-28T12:50:04;9.45;;;5.80;;
71730;SDS011;65964;43.496;3.710;2023-02-28T12:52:41;12.88;;;6.38;;
71730;SDS011;65964;43.496;3.710;2023-02-28T13:00:28;9.30;;;5.57;;
71730;SDS011;65964;43.496;3.710;2023-02-28T13:10:23;8.10;;;5.68;;
71730;SDS011;65964;43.496;3.710;2023-02-28T13:12:50;8.07;;;5.57;;
71730;SDS011;65964;43.496;3.710;2023-02-28T13:17:47;9.02;;;6.18;;
71730;SDS011;65964;43.496;3.710;2023-02-28T13:20:18;13.30;;;6.85;;
71730;SDS011;65964;43.496;3.710;2023-02-28T13:22:46;12.68;;;6.57;;
71730;SDS011;65964;43.496;3.710;2023-02-28T13:27:51;10.18;;;5.50;;
71730;SDS011;65964;43.496;3.710;2023-02-28T13:38:35;12.93;;;6.68;;
71730;SDS011;65964;43.496;3.710;2023-02-28T13:46:31;9.98;;;5.70;;
71730;SDS011;65964;43.496;3.710;2023-02-28T13:51:44;9.98;;;5.63;;
71730;SDS011;65964;43.496;3.710;2023-02-28T13:56:52;16.40;;;6.80;;
71730;SDS011;65964;43.496;3.710;2023-02-28T14:00:13;11.85;;;6.28;;
71730;SDS011;65964;43.496;3.710;2023-02-28T14:02:15;11.63;;;6.30;;
71730;SDS011;65964;43.496;3.710;2023-02-28T14:04:59;9.90;;;6.32;;
71730;SDS011;65964;43.496;3.710;2023-02-28T14:07:28;8.70;;;6.20;;
71730;SDS011;65964;43.496;3.710;2023-02-28T14:09:57;10.82;;;6.30;;
71730;SDS011;65964;43.496;3.710;2023-02-28T14:15:30;9.90;;;6.45;;
71730;SDS011;65964;43.496;3.710;2023-02-28T14:18:01;11.25;;;6.15;;
71730;SDS011;65964;43.496;3.710;2023-02-28T14:20:29;11.43;;;6.65;;
71730;SDS011;65964;43.496;3.710;2023-02-28T14:23:21;11.30;;;7.43;;
71730;SDS011;65964;43.496;3.710;2023-02-28T14:26:00;12.80;;;6.72;;
71730;SDS011;65964;43.496;3.710;2023-02-28T14:31:37;10.90;;;6.85;;
71730;SDS011;65964;43.496;3.710;2023-02-28T14:36:35;11.15;;;7.32;;
71730;SDS011;65964;43.496;3.710;2023-02-28T14:39:12;14.10;;;7.53;;
71730;SDS011;65964;43.496;3.710;2023-02-28T14:41:40;11.20;;;6.68;;
71730;SDS011;65964;43.496;3.710;2023-02-28T14:46:45;12.10;;;7.35;;
71730;SDS011;65964;43.496;3.710;2023-02-28T14:51:43;13.82;;;6.95;;
71730;SDS011;65964;43.496;3.710;2023-02-28T14:54:11;10.98;;;6.55;;
71730;SDS011;65964;43.496;3.710;2023-02-28T14:56:38;11.55;;;6.35;;
71730;SDS011;65964;43.496;3.710;2023-02-28T14:59:06;8.95;;;6.53;;
71730;SDS011;65964;43.496;3.710;2023-02-28T15:01:46;9.13;;;5.95;;
71730;SDS011;65964;43.496;3.710;2023-02-28T15:04:16;9.25;;;6.22;;
71730;SDS011;65964;43.496;3.710;2023-02-28T15:06:44;11.80;;;6.55;;
71730;SDS011;65964;43.496;3.710;2023-02-28T15:09:16;13.52;;;6.30;;
71730;SDS011;65964;43.496;3.710;2023-02-28T15:11:47;8.63;;;5.80;;
71730;SDS011;65964;43.496;3.710;2023-02-28T15:14:21;9.98;;;6.57;;
71730;SDS011;65964;43.496;3.710;2023-02-28T15:16:49;11.95;;;6.25;;
71730;SDS011;65964;43.496;3.710;2023-02-28T15:19:31;8.82;;;6.25;;
71730;SDS011;65964;43.496;3.710;2023-02-28T15:22:04;10.23;;;6.63;;
71730;SDS011;65964;43.496;3.710;2023-02-28T15:24:45;14.55;;;6.43;;
71730;SDS011;65964;43.496;3.710;2023-02-28T15:27:14;14.23;;;6.70;;
71730;SDS011;65964;43.496;3.710;2023-02-28T15:29:43;10.57;;;6.60;;
71730;SDS011;65964;43.496;3.710;2023-02-28T15:32:20;13.60;;;6.60;;
71730;SDS011;65964;43.496;3.710;2023-02-28T15:34:46;9.80;;;6.60;;
71730;SDS011;65964;43.496;3.710;2023-02-28T15:39:56;12.07;;;6.57;;
71730;SDS011;65964;43.496;3.710;2023-02-28T15:42:30;10.90;;;6.70;;
71730;SDS011;65964;43.496;3.710;2023-02-28T15:44:56;11.23;;;6.40;;
71730;SDS011;65964;43.496;3.710;2023-02-28T15:47:25;11.23;;;7.03;;
71730;SDS011;65964;43.496;3.710;2023-02-28T15:49:56;10.73;;;7.00;;
71730;SDS011;65964;43.496;3.710;2023-02-28T15:52:33;9.32;;;6.72;;
71730;SDS011;65964;43.496;3.710;2023-02-28T15:55:07;10.95;;;6.85;;
71730;SDS011;65964;43.496;3.710;2023-02-28T15:57:33;10.82;;;6.60;;
71730;SDS011;65964;43.496;3.710;2023-02-28T16:00:00;11.85;;;6.78;;
71730;SDS011;65964;43.496;3.710;2023-02-28T16:02:32;12.65;;;7.47;;
71730;SDS011;65964;43.496;3.710;2023-02-28T16:07:28;13.98;;;8.35;;
71730;SDS011;65964;43.496;3.710;2023-02-28T16:09:54;11.32;;;7.30;;
71730;SDS011;65964;43.496;3.710;2023-02-28T16:12:20;12.15;;;7.15;;
71730;SDS011;65964;43.496;3.710;2023-02-28T16:14:51;11.45;;;7.07;;
71730;SDS011;65964;43.496;3.710;2023-02-28T16:17:21;10.15;;;6.93;;
71730;SDS011;65964;43.496;3.710;2023-02-28T16:19:48;11.65;;;7.45;;
71730;SDS011;65964;43.496;3.710;2023-02-28T16:22:14;12.40;;;7.32;;
71730;SDS011;65964;43.496;3.710;2023-02-28T16:24:40;12.48;;;7.32;;
71730;SDS011;65964;43.496;3.710;2023-02-28T16:27:06;13.48;;;7.75;;
71730;SDS011;65964;43.496;3.710;2023-02-28T16:29:34;11.20;;;7.80;;
71730;SDS011;65964;43.496;3.710;2023-02-28T16:32:00;15.13;;;8.25;;
71730;SDS011;65964;43.496;3.710;2023-02-28T16:34:27;12.02;;;7.05;;
71730;SDS011;65964;43.496;3.710;2023-02-28T16:36:53;14.02;;;8.27;;
71730;SDS011;65964;43.496;3.710;2023-02-28T16:39:20;14.65;;;9.15;;
71730;SDS011;65964;43.496;3.710;2023-02-28T16:41:46;13.75;;;8.10;;
71730;SDS011;65964;43.496;3.710;2023-02-28T16:44:17;16.20;;;8.30;;
71730;SDS011;65964;43.496;3.710;2023-02-28T16:46:46;11.27;;;7.30;;
71730;SDS011;65964;43.496;3.710;2023-02-28T16:49:13;10.38;;;7.22;;
71730;SDS011;65964;43.496;3.710;2023-02-28T16:51:39;12.80;;;7.95;;
71730;SDS011;65964;43.496;3.710;2023-02-28T16:54:05;12.82;;;7.75;;
71730;SDS011;65964;43.496;3.710;2023-02-28T16:56:31;11.80;;;7.90;;